AFR718 LFPG-GOBD
Flight info
| Callsign | AFR718 |
|---|---|
| Flight time | 5h 28m |
| Altitude | 33000 |
| Route | AGOPA DCT ARKIP DCT ARMAL DCT ARTAX DCT BEBIX DCT LMG DCT UVELI DCT OSMOB DCT VAVIX DCT NETUK N857 GARVU N10 BANEV N857 BAN N10 CJN L27 NASOS N869 MGA M985 PIMOS N869 GALTO UN869 PELAX/N0478F350 UN869 ADM UR975 DIDAN/N0476F340 UR975 SAKLI SAKLI1A |
| Aircraft | B77W/H-SDE1E2E3FGHIJ2J3J4J5M1RWXY/LB1D1 |
Departure
| Time | 2026-04-21 13:23 |
|---|---|
| Airport | Charles de Gaulle International Airport (LFPG) |
Arrival
| Time | 2026-04-21 18:52 |
|---|---|
| Airport | Blaise Diagne International Airport (GOBD) |
| Time | Latitude | Longitude | Altitude | Speed | Heading |
|---|---|---|---|---|---|
| 2026-04-21 12:40 | 49.00198 | 2.59000 | 359 ft | 0 kts | 84° |
| 2026-04-21 12:47 | 49.00198 | 2.58999 | 359 ft | 0 kts | 84° |
| 2026-04-21 12:58 | 49.00198 | 2.58998 | 359 ft | 0 kts | 84° |
| 2026-04-21 13:08 | 49.00198 | 2.58997 | 367 ft | 0 kts | 84° |
| 2026-04-21 13:10 | 49.00196 | 2.58973 | 365 ft | 4 kts | 86° |
| 2026-04-21 13:11 | 49.00195 | 2.58933 | 359 ft | 2 kts | 86° |
| 2026-04-21 13:11 | 49.00197 | 2.58899 | 363 ft | 4 kts | 128° |
| 2026-04-21 13:11 | 49.00218 | 2.58882 | 365 ft | 4 kts | 173° |
| 2026-04-21 13:11 | 49.00238 | 2.58879 | 361 ft | 1 kts | 175° |
| 2026-04-21 13:12 | 49.00242 | 2.58878 | 361 ft | 7 kts | 175° |
| 2026-04-21 13:16 | 49.00232 | 2.58880 | 360 ft | 2 kts | 176° |
| 2026-04-21 13:16 | 49.00208 | 2.58882 | 366 ft | 4 kts | 176° |
| 2026-04-21 13:16 | 49.00172 | 2.58885 | 361 ft | 6 kts | 176° |
| 2026-04-21 13:16 | 49.00122 | 2.58890 | 364 ft | 8 kts | 176° |
| 2026-04-21 13:17 | 49.00062 | 2.58878 | 366 ft | 9 kts | 202° |
| 2026-04-21 13:17 | 49.00035 | 2.58785 | 359 ft | 11 kts | 263° |
| 2026-04-21 13:17 | 49.00029 | 2.58665 | 359 ft | 12 kts | 266° |
| 2026-04-21 13:17 | 49.00023 | 2.58527 | 359 ft | 14 kts | 265° |
| 2026-04-21 13:18 | 49.00015 | 2.58372 | 367 ft | 15 kts | 265° |
| 2026-04-21 13:18 | 49.00006 | 2.58201 | 360 ft | 17 kts | 265° |
| 2026-04-21 13:18 | 48.99996 | 2.58015 | 361 ft | 18 kts | 265° |
| 2026-04-21 13:18 | 48.99984 | 2.57813 | 364 ft | 20 kts | 265° |
| 2026-04-21 13:19 | 48.99971 | 2.57597 | 359 ft | 21 kts | 265° |
| 2026-04-21 13:19 | 48.99960 | 2.57373 | 365 ft | 21 kts | 265° |
| 2026-04-21 13:19 | 48.99948 | 2.57150 | 364 ft | 21 kts | 265° |
| 2026-04-21 13:19 | 48.99937 | 2.56930 | 359 ft | 21 kts | 265° |
| 2026-04-21 13:20 | 48.99924 | 2.56708 | 364 ft | 20 kts | 260° |
| 2026-04-21 13:20 | 48.99914 | 2.56495 | 365 ft | 20 kts | 267° |
| 2026-04-21 13:20 | 48.99904 | 2.56299 | 362 ft | 17 kts | 265° |
| 2026-04-21 13:20 | 48.99895 | 2.56124 | 359 ft | 17 kts | 264° |
| 2026-04-21 13:21 | 48.99858 | 2.56024 | 367 ft | 8 kts | 206° |
| 2026-04-21 13:21 | 48.99802 | 2.56018 | 364 ft | 8 kts | 176° |
| 2026-04-21 13:21 | 48.99745 | 2.56027 | 364 ft | 8 kts | 173° |
| 2026-04-21 13:21 | 48.99688 | 2.56036 | 368 ft | 8 kts | 174° |
| 2026-04-21 13:22 | 48.99639 | 2.56044 | 363 ft | 4 kts | 164° |
| 2026-04-21 13:22 | 48.99620 | 2.56080 | 364 ft | 5 kts | 112° |
| 2026-04-21 13:22 | 48.99620 | 2.56209 | 362 ft | 35 kts | 85° |
| 2026-04-21 13:22 | 48.99659 | 2.56935 | 363 ft | 100 kts | 85° |
| 2026-04-21 13:23 | 48.99730 | 2.58287 | 366 ft | 153 kts | 84° |
| 2026-04-21 13:23 | 48.99870 | 2.60097 | 426 ft | 184 kts | 79° |
| 2026-04-21 13:23 | 48.99997 | 2.62052 | 925 ft | 187 kts | 82° |
| 2026-04-21 13:23 | 49.00089 | 2.64059 | 1495 ft | 189 kts | 84° |
| 2026-04-21 13:24 | 49.00176 | 2.66029 | 2161 ft | 188 kts | 83° |
| 2026-04-21 13:24 | 49.00276 | 2.68108 | 2330 ft | 207 kts | 83° |
| 2026-04-21 13:24 | 49.00390 | 2.70412 | 2506 ft | 228 kts | 84° |
| 2026-04-21 13:24 | 49.00509 | 2.72851 | 3078 ft | 235 kts | 84° |
| 2026-04-21 13:25 | 49.00634 | 2.75336 | 3669 ft | 239 kts | 84° |
| 2026-04-21 13:25 | 49.00740 | 2.77868 | 4355 ft | 240 kts | 89° |
| 2026-04-21 13:25 | 49.00557 | 2.80440 | 4919 ft | 247 kts | 97° |
| 2026-04-21 13:25 | 49.00251 | 2.83010 | 5625 ft | 247 kts | 98° |
| 2026-04-21 13:26 | 48.99947 | 2.85616 | 6246 ft | 251 kts | 97° |
| 2026-04-21 13:26 | 48.99664 | 2.88168 | 6715 ft | 259 kts | 97° |
| 2026-04-21 13:26 | 48.99373 | 2.90872 | 7383 ft | 259 kts | 97° |
| 2026-04-21 13:26 | 48.99082 | 2.93611 | 7937 ft | 264 kts | 95° |
| 2026-04-21 13:27 | 48.98769 | 2.96384 | 8434 ft | 269 kts | 101° |
| 2026-04-21 13:27 | 48.97899 | 2.98959 | 8786 ft | 284 kts | 130° |
| 2026-04-21 13:27 | 48.96302 | 3.00772 | 9317 ft | 292 kts | 155° |
| 2026-04-21 13:27 | 48.94335 | 3.01460 | 9853 ft | 297 kts | 180° |
| 2026-04-21 13:28 | 48.92309 | 3.00840 | 10311 ft | 300 kts | 208° |
| 2026-04-21 13:28 | 48.90607 | 2.98905 | 10575 ft | 309 kts | 234° |
| 2026-04-21 13:28 | 48.89520 | 2.96085 | 10721 ft | 321 kts | 252° |
| 2026-04-21 13:28 | 48.88845 | 2.92763 | 10886 ft | 339 kts | 259° |
| 2026-04-21 13:29 | 48.88299 | 2.89165 | 11057 ft | 358 kts | 259° |
| 2026-04-21 13:29 | 48.87747 | 2.85407 | 11548 ft | 368 kts | 259° |
| 2026-04-21 13:29 | 48.87163 | 2.81591 | 12242 ft | 374 kts | 260° |
| 2026-04-21 13:29 | 48.86545 | 2.77739 | 13106 ft | 377 kts | 258° |
| 2026-04-21 13:30 | 48.85904 | 2.73861 | 13950 ft | 380 kts | 259° |
| 2026-04-21 13:30 | 48.85245 | 2.69949 | 14694 ft | 383 kts | 258° |
| 2026-04-21 13:30 | 48.84580 | 2.66029 | 15489 ft | 385 kts | 258° |
| 2026-04-21 13:30 | 48.83820 | 2.62116 | 16170 ft | 389 kts | 251° |
| 2026-04-21 13:31 | 48.82399 | 2.58588 | 16775 ft | 398 kts | 237° |
| 2026-04-21 13:31 | 48.80715 | 2.55199 | 17358 ft | 404 kts | 238° |
| 2026-04-21 13:31 | 48.79036 | 2.51755 | 18101 ft | 407 kts | 239° |
| 2026-04-21 13:31 | 48.77375 | 2.48267 | 18832 ft | 408 kts | 240° |
| 2026-04-21 13:32 | 48.75724 | 2.44756 | 19494 ft | 409 kts | 240° |
| 2026-04-21 13:32 | 48.74067 | 2.41231 | 20187 ft | 410 kts | 240° |
| 2026-04-21 13:32 | 48.72129 | 2.37989 | 20681 ft | 427 kts | 224° |
| 2026-04-21 13:32 | 48.69582 | 2.35591 | 21154 ft | 437 kts | 216° |
| 2026-04-21 13:33 | 48.66907 | 2.33318 | 21644 ft | 442 kts | 217° |
| 2026-04-21 13:33 | 48.64263 | 2.31034 | 22262 ft | 444 kts | 218° |
| 2026-04-21 13:33 | 48.61592 | 2.28681 | 22906 ft | 445 kts | 218° |
| 2026-04-21 13:33 | 48.58923 | 2.26299 | 23531 ft | 446 kts | 219° |
| 2026-04-21 13:34 | 48.56247 | 2.23894 | 24027 ft | 450 kts | 219° |
| 2026-04-21 13:34 | 48.53554 | 2.21473 | 24472 ft | 453 kts | 219° |
| 2026-04-21 13:34 | 48.50832 | 2.19035 | 24902 ft | 456 kts | 218° |
| 2026-04-21 13:34 | 48.48084 | 2.16601 | 25347 ft | 459 kts | 218° |
| 2026-04-21 13:35 | 48.45316 | 2.14174 | 25791 ft | 461 kts | 217° |
| 2026-04-21 13:35 | 48.42547 | 2.11755 | 26260 ft | 462 kts | 217° |
| 2026-04-21 13:35 | 48.39754 | 2.09316 | 26706 ft | 464 kts | 217° |
| 2026-04-21 13:35 | 48.36959 | 2.06873 | 27145 ft | 466 kts | 217° |
| 2026-04-21 13:36 | 48.34146 | 2.04414 | 27536 ft | 469 kts | 217° |
| 2026-04-21 13:36 | 48.31307 | 2.01986 | 27863 ft | 472 kts | 213° |
| 2026-04-21 13:36 | 48.28150 | 2.00336 | 28088 ft | 494 kts | 195° |
| 2026-04-21 13:36 | 48.25839 | 2.00081 | 28275 ft | 504 kts | 184° |
| 2026-04-21 13:37 | 48.22319 | 2.00340 | 28597 ft | 508 kts | 182° |
| 2026-04-21 13:37 | 48.18780 | 2.00612 | 28946 ft | 509 kts | 183° |
| 2026-04-21 13:37 | 48.15233 | 2.00804 | 29345 ft | 509 kts | 184° |
| 2026-04-21 13:37 | 48.11699 | 2.00922 | 29789 ft | 508 kts | 185° |
| 2026-04-21 13:38 | 48.08164 | 2.01016 | 30261 ft | 507 kts | 184° |
| 2026-04-21 13:38 | 48.04639 | 2.01156 | 30688 ft | 506 kts | 184° |
| 2026-04-21 13:38 | 48.01131 | 2.01356 | 31100 ft | 504 kts | 183° |
| 2026-04-21 13:38 | 47.97648 | 2.01578 | 31467 ft | 503 kts | 183° |
| 2026-04-21 13:39 | 47.94161 | 2.01802 | 31864 ft | 502 kts | 183° |
| 2026-04-21 13:39 | 47.90678 | 2.02020 | 32240 ft | 500 kts | 183° |
| 2026-04-21 13:39 | 47.87205 | 2.02228 | 32607 ft | 499 kts | 183° |
| 2026-04-21 13:39 | 47.83733 | 2.02430 | 32959 ft | 498 kts | 183° |
| 2026-04-21 13:40 | 47.80268 | 2.02628 | 33062 ft | 501 kts | 183° |
| 2026-04-21 13:40 | 47.76779 | 2.02826 | 33073 ft | 502 kts | 183° |
| 2026-04-21 13:40 | 47.69868 | 2.03224 | 33075 ft | 497 kts | 183° |
| 2026-04-21 13:41 | 47.62971 | 2.03620 | 33091 ft | 495 kts | 184° |
| 2026-04-21 13:41 | 47.56089 | 2.04020 | 33066 ft | 495 kts | 184° |
| 2026-04-21 13:42 | 47.49200 | 2.04422 | 33076 ft | 495 kts | 184° |
| 2026-04-21 13:42 | 47.42286 | 2.04824 | 33083 ft | 497 kts | 184° |
| 2026-04-21 13:43 | 47.35368 | 2.05140 | 33056 ft | 496 kts | 187° |
| 2026-04-21 13:43 | 47.28564 | 2.04039 | 33077 ft | 488 kts | 197° |
| 2026-04-21 13:44 | 47.21881 | 2.02248 | 33067 ft | 489 kts | 197° |
| 2026-04-21 13:44 | 47.15171 | 2.00502 | 33049 ft | 490 kts | 196° |
| 2026-04-21 13:45 | 47.08698 | 1.98862 | 33056 ft | 489 kts | 196° |
| 2026-04-21 13:45 | 47.02026 | 1.97188 | 33049 ft | 488 kts | 196° |
| 2026-04-21 13:46 | 46.95370 | 1.95520 | 33038 ft | 487 kts | 196° |
| 2026-04-21 13:46 | 46.88698 | 1.93850 | 33040 ft | 485 kts | 196° |
| 2026-04-21 13:47 | 46.82057 | 1.92191 | 33044 ft | 484 kts | 196° |
| 2026-04-21 13:47 | 46.75411 | 1.90534 | 33040 ft | 484 kts | 196° |
| 2026-04-21 13:48 | 46.68778 | 1.88885 | 33037 ft | 484 kts | 196° |
| 2026-04-21 13:48 | 46.62128 | 1.87236 | 33037 ft | 484 kts | 196° |
| 2026-04-21 13:49 | 46.55478 | 1.85591 | 33035 ft | 485 kts | 196° |
| 2026-04-21 13:49 | 46.48844 | 1.83955 | 33025 ft | 484 kts | 196° |
| 2026-04-21 13:50 | 46.42195 | 1.82319 | 33018 ft | 484 kts | 196° |
| 2026-04-21 13:50 | 46.35554 | 1.80688 | 33021 ft | 484 kts | 196° |
| 2026-04-21 13:51 | 46.28999 | 1.78899 | 33008 ft | 477 kts | 203° |
| 2026-04-21 13:51 | 46.23099 | 1.74859 | 33007 ft | 461 kts | 220° |
| 2026-04-21 13:52 | 46.18263 | 1.69065 | 33007 ft | 453 kts | 227° |
| 2026-04-21 13:52 | 46.13521 | 1.63044 | 32986 ft | 454 kts | 227° |
| 2026-04-21 13:53 | 46.08738 | 1.57081 | 32975 ft | 455 kts | 226° |
| 2026-04-21 13:53 | 46.03930 | 1.51135 | 32987 ft | 455 kts | 226° |
| 2026-04-21 13:54 | 45.99147 | 1.45232 | 32979 ft | 456 kts | 226° |
| 2026-04-21 13:54 | 45.94887 | 1.38631 | 32955 ft | 447 kts | 238° |
| 2026-04-21 13:55 | 45.91653 | 1.31085 | 32969 ft | 441 kts | 247° |
| 2026-04-21 13:55 | 45.88913 | 1.23186 | 32969 ft | 443 kts | 247° |
| 2026-04-21 13:56 | 45.86133 | 1.15288 | 32960 ft | 444 kts | 246° |
| 2026-04-21 13:56 | 45.83268 | 1.07434 | 32962 ft | 446 kts | 242° |
| 2026-04-21 13:57 | 45.79459 | 1.00347 | 32973 ft | 452 kts | 231° |
| 2026-04-21 13:57 | 45.74972 | 0.94493 | 32955 ft | 457 kts | 224° |
| 2026-04-21 13:58 | 45.70058 | 0.88711 | 32940 ft | 457 kts | 224° |
| 2026-04-21 13:58 | 45.65151 | 0.82929 | 32934 ft | 457 kts | 224° |
| 2026-04-21 13:59 | 45.60262 | 0.77128 | 32917 ft | 456 kts | 224° |
| 2026-04-21 13:59 | 45.55412 | 0.71365 | 32912 ft | 456 kts | 224° |
| 2026-04-21 14:00 | 45.50534 | 0.65579 | 32918 ft | 456 kts | 224° |
| 2026-04-21 14:00 | 45.45648 | 0.59802 | 32912 ft | 456 kts | 224° |
| 2026-04-21 14:01 | 45.40723 | 0.53991 | 32917 ft | 457 kts | 224° |
| 2026-04-21 14:01 | 45.35856 | 0.48262 | 32908 ft | 457 kts | 223° |
| 2026-04-21 14:02 | 45.30958 | 0.42512 | 32916 ft | 457 kts | 223° |
| 2026-04-21 14:03 | 45.23613 | 0.33911 | 32912 ft | 456 kts | 223° |
| 2026-04-21 14:03 | 45.18701 | 0.28176 | 32882 ft | 456 kts | 223° |
| 2026-04-21 14:04 | 45.13803 | 0.22470 | 32901 ft | 456 kts | 223° |
| 2026-04-21 14:04 | 45.08905 | 0.16775 | 32898 ft | 455 kts | 223° |
| 2026-04-21 14:05 | 45.04002 | 0.11089 | 32893 ft | 456 kts | 223° |
| 2026-04-21 14:05 | 44.99112 | 0.05435 | 32882 ft | 456 kts | 222° |
| 2026-04-21 14:06 | 44.94293 | -0.00126 | 32888 ft | 456 kts | 222° |
| 2026-04-21 14:06 | 44.89512 | -0.05632 | 32884 ft | 456 kts | 222° |
| 2026-04-21 14:07 | 44.84594 | -0.11285 | 32873 ft | 456 kts | 222° |
| 2026-04-21 14:07 | 44.79672 | -0.16930 | 32871 ft | 456 kts | 222° |
| 2026-04-21 14:08 | 44.74751 | -0.22562 | 32873 ft | 456 kts | 222° |
| 2026-04-21 14:08 | 44.69824 | -0.28189 | 32873 ft | 456 kts | 222° |
| 2026-04-21 14:09 | 44.64921 | -0.33754 | 32873 ft | 456 kts | 220° |
| 2026-04-21 14:09 | 44.59708 | -0.38876 | 32865 ft | 458 kts | 217° |
| 2026-04-21 14:10 | 44.54440 | -0.43903 | 32864 ft | 458 kts | 217° |
| 2026-04-21 14:10 | 44.49175 | -0.48947 | 32853 ft | 458 kts | 217° |
| 2026-04-21 14:11 | 44.43919 | -0.53991 | 32852 ft | 458 kts | 217° |
| 2026-04-21 14:11 | 44.38666 | -0.59025 | 32847 ft | 457 kts | 217° |
| 2026-04-21 14:12 | 44.33422 | -0.64037 | 32842 ft | 457 kts | 217° |
| 2026-04-21 14:12 | 44.28167 | -0.69048 | 32839 ft | 457 kts | 217° |
| 2026-04-21 14:13 | 44.22889 | -0.73971 | 32834 ft | 457 kts | 216° |
| 2026-04-21 14:13 | 44.17608 | -0.78801 | 32827 ft | 457 kts | 216° |
| 2026-04-21 14:14 | 44.12295 | -0.83657 | 32825 ft | 456 kts | 216° |
| 2026-04-21 14:14 | 44.06990 | -0.88511 | 32825 ft | 456 kts | 216° |
| 2026-04-21 14:15 | 44.01683 | -0.93363 | 32810 ft | 456 kts | 216° |
| 2026-04-21 14:15 | 43.96399 | -0.98183 | 32815 ft | 456 kts | 216° |
| 2026-04-21 14:16 | 43.91281 | -1.02841 | 32808 ft | 456 kts | 216° |
| 2026-04-21 14:16 | 43.85982 | -1.07654 | 32805 ft | 456 kts | 216° |
| 2026-04-21 14:17 | 43.80670 | -1.12467 | 32799 ft | 456 kts | 216° |
| 2026-04-21 14:17 | 43.75361 | -1.17268 | 32807 ft | 455 kts | 216° |
| 2026-04-21 14:18 | 43.70068 | -1.22044 | 32800 ft | 454 kts | 216° |
| 2026-04-21 14:18 | 43.64819 | -1.26771 | 32801 ft | 453 kts | 216° |
| 2026-04-21 14:19 | 43.59528 | -1.31524 | 32800 ft | 453 kts | 216° |
| 2026-04-21 14:19 | 43.54249 | -1.36258 | 32804 ft | 453 kts | 216° |
| 2026-04-21 14:20 | 43.48956 | -1.40994 | 32802 ft | 454 kts | 215° |
| 2026-04-21 14:20 | 43.43661 | -1.45722 | 32806 ft | 454 kts | 215° |
| 2026-04-21 14:21 | 43.38356 | -1.50450 | 32803 ft | 454 kts | 215° |
| 2026-04-21 14:21 | 43.33038 | -1.55179 | 32812 ft | 454 kts | 216° |
| 2026-04-21 14:22 | 43.27613 | -1.59626 | 32768 ft | 456 kts | 207° |
| 2026-04-21 14:22 | 43.21555 | -1.62329 | 32776 ft | 460 kts | 194° |
| 2026-04-21 14:23 | 43.15225 | -1.63450 | 32787 ft | 462 kts | 190° |
| 2026-04-21 14:23 | 43.08836 | -1.64420 | 32809 ft | 462 kts | 190° |
| 2026-04-21 14:24 | 43.02461 | -1.65440 | 32814 ft | 461 kts | 190° |
| 2026-04-21 14:24 | 42.96104 | -1.66484 | 32814 ft | 462 kts | 191° |
| 2026-04-21 14:25 | 42.90765 | -1.67363 | 32812 ft | 462 kts | 191° |
| 2026-04-21 14:25 | 42.84378 | -1.68409 | 32833 ft | 462 kts | 191° |
| 2026-04-21 14:26 | 42.78023 | -1.69456 | 32822 ft | 462 kts | 192° |
| 2026-04-21 14:26 | 42.71854 | -1.71556 | 32838 ft | 455 kts | 202° |
| 2026-04-21 14:27 | 42.66089 | -1.75013 | 32832 ft | 452 kts | 210° |
| 2026-04-21 14:27 | 42.60467 | -1.78857 | 32819 ft | 452 kts | 210° |
| 2026-04-21 14:28 | 42.54828 | -1.82666 | 32808 ft | 453 kts | 209° |
| 2026-04-21 14:28 | 42.49174 | -1.86447 | 32802 ft | 452 kts | 209° |
| 2026-04-21 14:29 | 42.43528 | -1.90213 | 32788 ft | 453 kts | 209° |
| 2026-04-21 14:29 | 42.37882 | -1.93978 | 32789 ft | 452 kts | 209° |
| 2026-04-21 14:30 | 42.32244 | -1.97735 | 32793 ft | 451 kts | 209° |
| 2026-04-21 14:30 | 42.26819 | -2.01351 | 32797 ft | 450 kts | 209° |
| 2026-04-21 14:31 | 42.21232 | -2.05061 | 32802 ft | 450 kts | 209° |
| 2026-04-21 14:31 | 42.15610 | -2.08784 | 32802 ft | 450 kts | 209° |
| 2026-04-21 14:32 | 42.09998 | -2.12491 | 32795 ft | 450 kts | 209° |
| 2026-04-21 14:32 | 42.04374 | -2.16198 | 32817 ft | 450 kts | 209° |
| 2026-04-21 14:33 | 41.98766 | -2.19889 | 32834 ft | 450 kts | 208° |
| 2026-04-21 14:33 | 41.93126 | -2.23595 | 32825 ft | 450 kts | 209° |
| 2026-04-21 14:34 | 41.87489 | -2.27291 | 32838 ft | 451 kts | 209° |
| 2026-04-21 14:34 | 41.81854 | -2.30979 | 32839 ft | 451 kts | 208° |
| 2026-04-21 14:35 | 41.76222 | -2.34657 | 32827 ft | 450 kts | 208° |
| 2026-04-21 14:35 | 41.70590 | -2.38328 | 32834 ft | 449 kts | 208° |
| 2026-04-21 14:36 | 41.65015 | -2.41956 | 32835 ft | 448 kts | 208° |
| 2026-04-21 14:36 | 41.59410 | -2.45596 | 32837 ft | 447 kts | 208° |
| 2026-04-21 14:37 | 41.53811 | -2.49227 | 32838 ft | 447 kts | 208° |
| 2026-04-21 14:37 | 41.48199 | -2.52855 | 32837 ft | 448 kts | 208° |
| 2026-04-21 14:38 | 41.42571 | -2.56473 | 32837 ft | 449 kts | 208° |
| 2026-04-21 14:38 | 41.36928 | -2.60088 | 32845 ft | 451 kts | 207° |
| 2026-04-21 14:39 | 41.30852 | -2.62338 | 32839 ft | 458 kts | 190° |
| 2026-04-21 14:39 | 41.24449 | -2.62441 | 32856 ft | 464 kts | 179° |
| 2026-04-21 14:40 | 41.17990 | -2.61750 | 32861 ft | 465 kts | 179° |
| 2026-04-21 14:40 | 41.11526 | -2.61112 | 32856 ft | 466 kts | 179° |
| 2026-04-21 14:41 | 41.05060 | -2.60530 | 32860 ft | 466 kts | 179° |
| 2026-04-21 14:41 | 40.98605 | -2.59955 | 32864 ft | 466 kts | 179° |
| 2026-04-21 14:42 | 40.92127 | -2.59376 | 32863 ft | 466 kts | 179° |
| 2026-04-21 14:42 | 40.85696 | -2.58801 | 32854 ft | 466 kts | 180° |
| 2026-04-21 14:43 | 40.79220 | -2.58223 | 32859 ft | 466 kts | 180° |
| 2026-04-21 14:43 | 40.72743 | -2.57645 | 32865 ft | 467 kts | 180° |
| 2026-04-21 14:44 | 40.66268 | -2.57071 | 32868 ft | 467 kts | 180° |
| 2026-04-21 14:44 | 40.59786 | -2.56495 | 32863 ft | 467 kts | 180° |
| 2026-04-21 14:45 | 40.53298 | -2.55921 | 32863 ft | 467 kts | 180° |
| 2026-04-21 14:45 | 40.46803 | -2.55346 | 32860 ft | 467 kts | 180° |
| 2026-04-21 14:46 | 40.40327 | -2.54907 | 32853 ft | 464 kts | 186° |
| 2026-04-21 14:46 | 40.34009 | -2.56169 | 32865 ft | 457 kts | 198° |
| 2026-04-21 14:47 | 40.28059 | -2.58977 | 32876 ft | 455 kts | 204° |
| 2026-04-21 14:47 | 40.22148 | -2.62017 | 32851 ft | 456 kts | 204° |
| 2026-04-21 14:48 | 40.16235 | -2.65016 | 32879 ft | 456 kts | 204° |
| 2026-04-21 14:48 | 40.10311 | -2.67983 | 32872 ft | 456 kts | 204° |
| 2026-04-21 14:49 | 40.04396 | -2.70932 | 32866 ft | 454 kts | 204° |
| 2026-04-21 14:49 | 39.98516 | -2.73858 | 32872 ft | 452 kts | 204° |
| 2026-04-21 14:50 | 39.93642 | -2.76280 | 32865 ft | 450 kts | 204° |
| 2026-04-21 14:50 | 39.86815 | -2.79668 | 32864 ft | 448 kts | 204° |
| 2026-04-21 14:51 | 39.80989 | -2.82554 | 32857 ft | 448 kts | 204° |
| 2026-04-21 14:51 | 39.75157 | -2.85437 | 32861 ft | 448 kts | 204° |
| 2026-04-21 14:52 | 39.69313 | -2.88322 | 32856 ft | 450 kts | 203° |
| 2026-04-21 14:52 | 39.63485 | -2.91193 | 32865 ft | 451 kts | 203° |
| 2026-04-21 14:53 | 39.57566 | -2.94104 | 32868 ft | 452 kts | 203° |
| 2026-04-21 14:53 | 39.51718 | -2.96986 | 32837 ft | 453 kts | 204° |
| 2026-04-21 14:54 | 39.45818 | -2.99892 | 32837 ft | 454 kts | 203° |
| 2026-04-21 14:54 | 39.40109 | -3.02696 | 32838 ft | 454 kts | 203° |
| 2026-04-21 14:55 | 39.34191 | -3.05579 | 32836 ft | 454 kts | 203° |
| 2026-04-21 14:55 | 39.28275 | -3.08445 | 32839 ft | 454 kts | 203° |
| 2026-04-21 14:56 | 39.22362 | -3.11308 | 32846 ft | 453 kts | 203° |
| 2026-04-21 14:56 | 39.16463 | -3.14161 | 32848 ft | 453 kts | 203° |
| 2026-04-21 14:57 | 39.10568 | -3.17008 | 32840 ft | 452 kts | 203° |
| 2026-04-21 14:57 | 39.04675 | -3.19849 | 32839 ft | 452 kts | 203° |
| 2026-04-21 14:58 | 38.98796 | -3.22678 | 32841 ft | 452 kts | 203° |
| 2026-04-21 14:58 | 38.92895 | -3.25521 | 32846 ft | 452 kts | 203° |
| 2026-04-21 14:59 | 38.86996 | -3.28363 | 32840 ft | 453 kts | 203° |
| 2026-04-21 14:59 | 38.81139 | -3.31180 | 32844 ft | 452 kts | 203° |
| 2026-04-21 15:00 | 38.75247 | -3.34007 | 32854 ft | 452 kts | 203° |
| 2026-04-21 15:00 | 38.69353 | -3.36830 | 32863 ft | 451 kts | 203° |
| 2026-04-21 15:01 | 38.63470 | -3.39645 | 32861 ft | 451 kts | 203° |
| 2026-04-21 15:01 | 38.57584 | -3.42454 | 32849 ft | 451 kts | 203° |
| 2026-04-21 15:02 | 38.51714 | -3.45251 | 32859 ft | 449 kts | 203° |
| 2026-04-21 15:02 | 38.45869 | -3.48031 | 32866 ft | 448 kts | 203° |
| 2026-04-21 15:03 | 38.40075 | -3.50784 | 32855 ft | 446 kts | 203° |
| 2026-04-21 15:03 | 38.34256 | -3.53543 | 32849 ft | 445 kts | 203° |
| 2026-04-21 15:04 | 38.28453 | -3.56290 | 32864 ft | 445 kts | 203° |
| 2026-04-21 15:04 | 38.22647 | -3.59034 | 32858 ft | 445 kts | 203° |
| 2026-04-21 15:05 | 38.16831 | -3.61778 | 32855 ft | 446 kts | 203° |
| 2026-04-21 15:05 | 38.08273 | -3.66433 | 32851 ft | 447 kts | 206° |
| 2026-04-21 15:06 | 38.02595 | -3.69675 | 32856 ft | 448 kts | 206° |
| 2026-04-21 15:06 | 37.96912 | -3.72899 | 32854 ft | 449 kts | 206° |
| 2026-04-21 15:07 | 37.91204 | -3.76121 | 32854 ft | 450 kts | 206° |
| 2026-04-21 15:07 | 37.85482 | -3.79341 | 32847 ft | 450 kts | 207° |
| 2026-04-21 15:08 | 37.79776 | -3.82547 | 32864 ft | 449 kts | 206° |
| 2026-04-21 15:08 | 37.75042 | -3.85203 | 32858 ft | 446 kts | 206° |
| 2026-04-21 15:09 | 37.69366 | -3.88383 | 32855 ft | 445 kts | 206° |
| 2026-04-21 15:09 | 37.63718 | -3.91540 | 32853 ft | 443 kts | 206° |
| 2026-04-21 15:10 | 37.58087 | -3.94685 | 32856 ft | 441 kts | 206° |
| 2026-04-21 15:10 | 37.52484 | -3.97809 | 32866 ft | 440 kts | 207° |
| 2026-04-21 15:11 | 37.47076 | -4.00819 | 32867 ft | 440 kts | 206° |
| 2026-04-21 15:11 | 37.41469 | -4.03935 | 32869 ft | 441 kts | 206° |
| 2026-04-21 15:12 | 37.35854 | -4.07050 | 32869 ft | 441 kts | 207° |
| 2026-04-21 15:12 | 37.30232 | -4.10163 | 32876 ft | 442 kts | 207° |
| 2026-04-21 15:13 | 37.24600 | -4.13278 | 32893 ft | 442 kts | 206° |
| 2026-04-21 15:13 | 37.18966 | -4.16387 | 32896 ft | 442 kts | 206° |
| 2026-04-21 15:14 | 37.13352 | -4.19482 | 32886 ft | 443 kts | 207° |
| 2026-04-21 15:14 | 37.07711 | -4.22586 | 32883 ft | 442 kts | 207° |
| 2026-04-21 15:15 | 37.02076 | -4.25682 | 32886 ft | 442 kts | 206° |
| 2026-04-21 15:15 | 36.96471 | -4.28756 | 32880 ft | 441 kts | 206° |
| 2026-04-21 15:16 | 36.90856 | -4.31831 | 32871 ft | 440 kts | 207° |
| 2026-04-21 15:16 | 36.85263 | -4.34890 | 32864 ft | 438 kts | 207° |
| 2026-04-21 15:17 | 36.79793 | -4.38198 | 32863 ft | 434 kts | 214° |
| 2026-04-21 15:17 | 36.74763 | -4.42238 | 32862 ft | 434 kts | 215° |
| 2026-04-21 15:18 | 36.69673 | -4.46305 | 32850 ft | 434 kts | 215° |
| 2026-04-21 15:18 | 36.64578 | -4.50347 | 32854 ft | 434 kts | 215° |
| 2026-04-21 15:19 | 36.59478 | -4.54380 | 32861 ft | 435 kts | 215° |
| 2026-04-21 15:19 | 36.54359 | -4.58422 | 32897 ft | 436 kts | 214° |
| 2026-04-21 15:20 | 36.49232 | -4.62465 | 32900 ft | 437 kts | 214° |
| 2026-04-21 15:20 | 36.44096 | -4.66508 | 32901 ft | 437 kts | 214° |
| 2026-04-21 15:21 | 36.38958 | -4.70547 | 32892 ft | 437 kts | 214° |
| 2026-04-21 15:21 | 36.33817 | -4.74582 | 32899 ft | 437 kts | 214° |
| 2026-04-21 15:22 | 36.28676 | -4.78610 | 32903 ft | 437 kts | 214° |
| 2026-04-21 15:22 | 36.23536 | -4.82632 | 32904 ft | 437 kts | 214° |
| 2026-04-21 15:23 | 36.18400 | -4.86646 | 32902 ft | 437 kts | 214° |
| 2026-04-21 15:23 | 36.13259 | -4.90664 | 32901 ft | 436 kts | 214° |
| 2026-04-21 15:24 | 36.08185 | -4.94695 | 32901 ft | 436 kts | 215° |
| 2026-04-21 15:24 | 36.03074 | -4.98762 | 32902 ft | 436 kts | 214° |
| 2026-04-21 15:25 | 35.98182 | -5.02642 | 32897 ft | 436 kts | 214° |
| 2026-04-21 15:25 | 35.93068 | -5.06687 | 32892 ft | 436 kts | 214° |
| 2026-04-21 15:26 | 35.87964 | -5.10720 | 32887 ft | 436 kts | 214° |
| 2026-04-21 15:26 | 35.82862 | -5.14785 | 32891 ft | 436 kts | 216° |
| 2026-04-21 15:27 | 35.77995 | -5.19248 | 32881 ft | 436 kts | 218° |
| 2026-04-21 15:27 | 35.73145 | -5.23742 | 32884 ft | 436 kts | 218° |
| 2026-04-21 15:28 | 35.68292 | -5.28220 | 32885 ft | 436 kts | 218° |
| 2026-04-21 15:28 | 35.63436 | -5.32684 | 32869 ft | 437 kts | 218° |
| 2026-04-21 15:29 | 35.58564 | -5.37155 | 32882 ft | 437 kts | 217° |
| 2026-04-21 15:29 | 35.53689 | -5.41619 | 32872 ft | 438 kts | 217° |
| 2026-04-21 15:30 | 35.48804 | -5.46085 | 32869 ft | 438 kts | 217° |
| 2026-04-21 15:30 | 35.43959 | -5.50509 | 32870 ft | 438 kts | 217° |
| 2026-04-21 15:31 | 35.39071 | -5.54965 | 32881 ft | 438 kts | 217° |
| 2026-04-21 15:31 | 35.34179 | -5.59417 | 32863 ft | 437 kts | 217° |
| 2026-04-21 15:32 | 35.29289 | -5.63862 | 32857 ft | 437 kts | 217° |
| 2026-04-21 15:32 | 35.24409 | -5.68291 | 32852 ft | 436 kts | 217° |
| 2026-04-21 15:33 | 35.19535 | -5.72707 | 32859 ft | 436 kts | 216° |
| 2026-04-21 15:33 | 35.14660 | -5.77117 | 32852 ft | 436 kts | 216° |
| 2026-04-21 15:34 | 35.09781 | -5.81523 | 32847 ft | 435 kts | 217° |
| 2026-04-21 15:34 | 35.04951 | -5.85880 | 32844 ft | 434 kts | 217° |
| 2026-04-21 15:35 | 35.00090 | -5.90257 | 32855 ft | 434 kts | 217° |
| 2026-04-21 15:35 | 34.95246 | -5.94613 | 32867 ft | 433 kts | 217° |
| 2026-04-21 15:36 | 34.90390 | -5.98973 | 32849 ft | 433 kts | 217° |
| 2026-04-21 15:36 | 34.85718 | -6.03162 | 32873 ft | 433 kts | 217° |
| 2026-04-21 15:37 | 34.80856 | -6.07514 | 32859 ft | 434 kts | 217° |
| 2026-04-21 15:37 | 34.76000 | -6.11856 | 32858 ft | 433 kts | 216° |
| 2026-04-21 15:38 | 34.71149 | -6.16185 | 32861 ft | 432 kts | 216° |
| 2026-04-21 15:38 | 34.66331 | -6.20479 | 32863 ft | 431 kts | 216° |
| 2026-04-21 15:39 | 34.61487 | -6.24789 | 32880 ft | 431 kts | 216° |
| 2026-04-21 15:39 | 34.56654 | -6.29084 | 32851 ft | 431 kts | 216° |
| 2026-04-21 15:40 | 34.51815 | -6.33377 | 32876 ft | 431 kts | 216° |
| 2026-04-21 15:40 | 34.46979 | -6.37662 | 32871 ft | 431 kts | 216° |
| 2026-04-21 15:41 | 34.42131 | -6.41951 | 32874 ft | 432 kts | 216° |
| 2026-04-21 15:41 | 34.37280 | -6.46237 | 32874 ft | 432 kts | 216° |
| 2026-04-21 15:42 | 34.32426 | -6.50518 | 32884 ft | 432 kts | 216° |
| 2026-04-21 15:42 | 34.27575 | -6.54791 | 32882 ft | 431 kts | 216° |
| 2026-04-21 15:43 | 34.22725 | -6.59057 | 32868 ft | 431 kts | 216° |
| 2026-04-21 15:43 | 34.17878 | -6.63315 | 32887 ft | 431 kts | 216° |
| 2026-04-21 15:44 | 34.12997 | -6.67596 | 33149 ft | 434 kts | 216° |
| 2026-04-21 15:44 | 34.10561 | -6.69731 | 33581 ft | 431 kts | 216° |
| 2026-04-21 15:44 | 34.08150 | -6.71842 | 34020 ft | 427 kts | 216° |
| 2026-04-21 15:45 | 34.05752 | -6.73940 | 34360 ft | 425 kts | 216° |
| 2026-04-21 15:45 | 34.03343 | -6.76016 | 34630 ft | 424 kts | 215° |
| 2026-04-21 15:45 | 34.00914 | -6.78035 | 34765 ft | 426 kts | 215° |
| 2026-04-21 15:45 | 33.98461 | -6.80041 | 34843 ft | 430 kts | 215° |
| 2026-04-21 15:46 | 33.93494 | -6.84087 | 34853 ft | 429 kts | 215° |
| 2026-04-21 15:46 | 33.88585 | -6.88099 | 34875 ft | 424 kts | 215° |
| 2026-04-21 15:47 | 33.83742 | -6.92067 | 34890 ft | 424 kts | 215° |
| 2026-04-21 15:47 | 33.78863 | -6.96064 | 34890 ft | 425 kts | 215° |
| 2026-04-21 15:48 | 33.73993 | -7.00047 | 34868 ft | 426 kts | 215° |
| 2026-04-21 15:48 | 33.69208 | -7.03956 | 34879 ft | 427 kts | 215° |
| 2026-04-21 15:49 | 33.64284 | -7.07972 | 34887 ft | 429 kts | 215° |
| 2026-04-21 15:49 | 33.59338 | -7.12001 | 34886 ft | 430 kts | 215° |
| 2026-04-21 15:50 | 33.55226 | -7.15346 | 34887 ft | 430 kts | 215° |
| 2026-04-21 15:50 | 33.49435 | -7.20049 | 34881 ft | 430 kts | 215° |
| 2026-04-21 15:51 | 33.44478 | -7.24070 | 34884 ft | 429 kts | 215° |
| 2026-04-21 15:51 | 33.39567 | -7.28048 | 34877 ft | 428 kts | 215° |
| 2026-04-21 15:52 | 33.34627 | -7.32043 | 34870 ft | 427 kts | 215° |
| 2026-04-21 15:52 | 33.29702 | -7.36022 | 34870 ft | 427 kts | 215° |
| 2026-04-21 15:53 | 33.24789 | -7.39985 | 34874 ft | 426 kts | 215° |
| 2026-04-21 15:53 | 33.19860 | -7.43956 | 34872 ft | 426 kts | 215° |
| 2026-04-21 15:54 | 33.15771 | -7.47247 | 34868 ft | 427 kts | 215° |
| 2026-04-21 15:54 | 33.09992 | -7.51772 | 34872 ft | 427 kts | 212° |
| 2026-04-21 15:55 | 33.05701 | -7.54788 | 34871 ft | 428 kts | 211° |
| 2026-04-21 15:55 | 33.00557 | -7.58374 | 34870 ft | 428 kts | 212° |
| 2026-04-21 15:56 | 32.95426 | -7.61969 | 34880 ft | 429 kts | 212° |
| 2026-04-21 15:56 | 32.90268 | -7.65588 | 34867 ft | 430 kts | 212° |
| 2026-04-21 15:57 | 32.85121 | -7.69193 | 34868 ft | 429 kts | 212° |
| 2026-04-21 15:57 | 32.79978 | -7.72793 | 34865 ft | 428 kts | 212° |
| 2026-04-21 15:58 | 32.74875 | -7.76362 | 34868 ft | 428 kts | 212° |
| 2026-04-21 15:58 | 32.69710 | -7.79972 | 34862 ft | 428 kts | 212° |
| 2026-04-21 15:59 | 32.64577 | -7.83554 | 34861 ft | 428 kts | 212° |
| 2026-04-21 15:59 | 32.59489 | -7.87100 | 34854 ft | 427 kts | 212° |
| 2026-04-21 16:00 | 32.54369 | -7.90664 | 34869 ft | 426 kts | 212° |
| 2026-04-21 16:00 | 32.49254 | -7.94218 | 34875 ft | 426 kts | 212° |
| 2026-04-21 16:01 | 32.44137 | -7.97771 | 34868 ft | 426 kts | 212° |
| 2026-04-21 16:01 | 32.39184 | -8.01204 | 34869 ft | 427 kts | 212° |
| 2026-04-21 16:02 | 32.34052 | -8.04757 | 34879 ft | 427 kts | 212° |
| 2026-04-21 16:02 | 32.28929 | -8.08300 | 34876 ft | 427 kts | 212° |
| 2026-04-21 16:03 | 32.23791 | -8.11848 | 34886 ft | 428 kts | 212° |
| 2026-04-21 16:03 | 32.18645 | -8.15397 | 34882 ft | 428 kts | 212° |
| 2026-04-21 16:04 | 32.13535 | -8.18918 | 34873 ft | 428 kts | 211° |
| 2026-04-21 16:04 | 32.08376 | -8.22427 | 34864 ft | 428 kts | 211° |
| 2026-04-21 16:05 | 32.03197 | -8.25895 | 34874 ft | 428 kts | 211° |
| 2026-04-21 16:05 | 31.98030 | -8.29351 | 34876 ft | 428 kts | 211° |
| 2026-04-21 16:06 | 31.92853 | -8.32816 | 34879 ft | 428 kts | 211° |
| 2026-04-21 16:06 | 31.87660 | -8.36291 | 34877 ft | 430 kts | 211° |
| 2026-04-21 16:07 | 31.82446 | -8.39776 | 34886 ft | 432 kts | 211° |
| 2026-04-21 16:07 | 31.77202 | -8.43276 | 34875 ft | 433 kts | 211° |
| 2026-04-21 16:08 | 31.69326 | -8.48524 | 34879 ft | 434 kts | 211° |
| 2026-04-21 16:09 | 31.64072 | -8.52019 | 34879 ft | 434 kts | 211° |
| 2026-04-21 16:09 | 31.58825 | -8.55505 | 34880 ft | 433 kts | 211° |
| 2026-04-21 16:10 | 31.53621 | -8.58959 | 34879 ft | 432 kts | 211° |
| 2026-04-21 16:10 | 31.48397 | -8.62420 | 34864 ft | 431 kts | 211° |
| 2026-04-21 16:11 | 31.43178 | -8.65874 | 34870 ft | 430 kts | 211° |
| 2026-04-21 16:11 | 31.37958 | -8.69325 | 34875 ft | 430 kts | 211° |
| 2026-04-21 16:12 | 31.32740 | -8.72770 | 34884 ft | 431 kts | 211° |
| 2026-04-21 16:12 | 31.27504 | -8.76222 | 34885 ft | 433 kts | 211° |
| 2026-04-21 16:13 | 31.22241 | -8.79688 | 34881 ft | 435 kts | 211° |
| 2026-04-21 16:13 | 31.16974 | -8.83150 | 34881 ft | 434 kts | 211° |
| 2026-04-21 16:14 | 31.11704 | -8.86612 | 34886 ft | 434 kts | 211° |
| 2026-04-21 16:14 | 31.06443 | -8.90062 | 34891 ft | 433 kts | 211° |
| 2026-04-21 16:15 | 31.01228 | -8.93478 | 34891 ft | 433 kts | 211° |
| 2026-04-21 16:15 | 30.95991 | -8.96905 | 34878 ft | 433 kts | 211° |
| 2026-04-21 16:16 | 30.90931 | -9.00211 | 34865 ft | 433 kts | 211° |
| 2026-04-21 16:16 | 30.85686 | -9.03634 | 34878 ft | 432 kts | 211° |
| 2026-04-21 16:17 | 30.80444 | -9.07051 | 34883 ft | 432 kts | 211° |
| 2026-04-21 16:17 | 30.75191 | -9.10471 | 34875 ft | 433 kts | 211° |
| 2026-04-21 16:18 | 30.69926 | -9.13894 | 34879 ft | 434 kts | 211° |
| 2026-04-21 16:18 | 30.64635 | -9.17329 | 34880 ft | 437 kts | 211° |
| 2026-04-21 16:19 | 30.59331 | -9.20768 | 34874 ft | 437 kts | 211° |
| 2026-04-21 16:19 | 30.54064 | -9.24180 | 34870 ft | 436 kts | 211° |
| 2026-04-21 16:20 | 30.48772 | -9.27604 | 34873 ft | 435 kts | 211° |
| 2026-04-21 16:20 | 30.43494 | -9.31014 | 34875 ft | 433 kts | 211° |
| 2026-04-21 16:21 | 30.38229 | -9.34414 | 34872 ft | 433 kts | 211° |
| 2026-04-21 16:21 | 30.32965 | -9.37777 | 34884 ft | 432 kts | 208° |
| 2026-04-21 16:22 | 30.27390 | -9.40452 | 34890 ft | 434 kts | 202° |
| 2026-04-21 16:22 | 30.21753 | -9.42867 | 34884 ft | 435 kts | 203° |
| 2026-04-21 16:23 | 30.16087 | -9.45318 | 34879 ft | 435 kts | 203° |
| 2026-04-21 16:23 | 30.10409 | -9.47789 | 34886 ft | 437 kts | 203° |
| 2026-04-21 16:24 | 30.04706 | -9.50266 | 34870 ft | 439 kts | 203° |
| 2026-04-21 16:24 | 29.99001 | -9.52742 | 34878 ft | 440 kts | 203° |
| 2026-04-21 16:25 | 29.93262 | -9.55229 | 34885 ft | 440 kts | 203° |
| 2026-04-21 16:25 | 29.87532 | -9.57725 | 34889 ft | 441 kts | 203° |
| 2026-04-21 16:26 | 29.81794 | -9.60234 | 34881 ft | 440 kts | 203° |
| 2026-04-21 16:26 | 29.76072 | -9.62731 | 34865 ft | 440 kts | 203° |
| 2026-04-21 16:27 | 29.70356 | -9.65221 | 34890 ft | 438 kts | 203° |
| 2026-04-21 16:27 | 29.64688 | -9.67687 | 34893 ft | 437 kts | 203° |
| 2026-04-21 16:28 | 29.59007 | -9.70155 | 34886 ft | 436 kts | 203° |
| 2026-04-21 16:28 | 29.53323 | -9.72617 | 34870 ft | 436 kts | 203° |
| 2026-04-21 16:29 | 29.48571 | -9.74675 | 34891 ft | 435 kts | 203° |
| 2026-04-21 16:29 | 29.41973 | -9.77529 | 34868 ft | 435 kts | 203° |
| 2026-04-21 16:30 | 29.36302 | -9.79980 | 34874 ft | 435 kts | 203° |
| 2026-04-21 16:30 | 29.30627 | -9.82429 | 34873 ft | 435 kts | 203° |
| 2026-04-21 16:31 | 29.24945 | -9.84879 | 34878 ft | 438 kts | 202° |
| 2026-04-21 16:31 | 29.19222 | -9.87343 | 34873 ft | 441 kts | 202° |
| 2026-04-21 16:32 | 29.13459 | -9.89822 | 34853 ft | 444 kts | 202° |
| 2026-04-21 16:32 | 29.07697 | -9.92297 | 34861 ft | 446 kts | 202° |
| 2026-04-21 16:33 | 29.01885 | -9.94791 | 34862 ft | 446 kts | 202° |
| 2026-04-21 16:33 | 28.96079 | -9.97273 | 34859 ft | 446 kts | 202° |
| 2026-04-21 16:34 | 28.90267 | -9.99746 | 34856 ft | 445 kts | 202° |
| 2026-04-21 16:34 | 28.84669 | -10.02126 | 34848 ft | 444 kts | 202° |
| 2026-04-21 16:35 | 28.78887 | -10.04582 | 34857 ft | 443 kts | 202° |
| 2026-04-21 16:35 | 28.73112 | -10.07033 | 34859 ft | 443 kts | 202° |
| 2026-04-21 16:36 | 28.67345 | -10.09479 | 34853 ft | 443 kts | 202° |
| 2026-04-21 16:36 | 28.61567 | -10.11926 | 34848 ft | 443 kts | 202° |
| 2026-04-21 16:37 | 28.55786 | -10.14371 | 34843 ft | 443 kts | 202° |
| 2026-04-21 16:37 | 28.49999 | -10.16816 | 34843 ft | 444 kts | 202° |
| 2026-04-21 16:38 | 28.44207 | -10.19260 | 34841 ft | 445 kts | 202° |
| 2026-04-21 16:38 | 28.39380 | -10.21295 | 34841 ft | 446 kts | 202° |
| 2026-04-21 16:39 | 28.32555 | -10.24169 | 34836 ft | 449 kts | 202° |
| 2026-04-21 16:39 | 28.27678 | -10.26220 | 34830 ft | 450 kts | 202° |
| 2026-04-21 16:40 | 28.20841 | -10.29092 | 34844 ft | 451 kts | 202° |
| 2026-04-21 16:40 | 28.14948 | -10.31564 | 34830 ft | 452 kts | 202° |
| 2026-04-21 16:41 | 28.10008 | -10.33634 | 34831 ft | 451 kts | 202° |
| 2026-04-21 16:41 | 28.04120 | -10.36099 | 34828 ft | 451 kts | 202° |
| 2026-04-21 16:42 | 27.98297 | -10.38534 | 34831 ft | 450 kts | 202° |
| 2026-04-21 16:42 | 27.92419 | -10.40988 | 34819 ft | 451 kts | 203° |
| 2026-04-21 16:43 | 27.86531 | -10.43445 | 34830 ft | 452 kts | 203° |
| 2026-04-21 16:43 | 27.80620 | -10.45909 | 34831 ft | 453 kts | 203° |
| 2026-04-21 16:44 | 27.74691 | -10.48377 | 34820 ft | 455 kts | 203° |
| 2026-04-21 16:44 | 27.68748 | -10.50848 | 34818 ft | 455 kts | 203° |
| 2026-04-21 16:45 | 27.62811 | -10.53344 | 34801 ft | 456 kts | 205° |
| 2026-04-21 16:45 | 27.56886 | -10.55905 | 34812 ft | 456 kts | 205° |
| 2026-04-21 16:46 | 27.50956 | -10.58469 | 34818 ft | 457 kts | 205° |
| 2026-04-21 16:46 | 27.45000 | -10.61037 | 34813 ft | 458 kts | 205° |
| 2026-04-21 16:47 | 27.39044 | -10.63598 | 34811 ft | 459 kts | 205° |
| 2026-04-21 16:47 | 27.33077 | -10.66157 | 34808 ft | 459 kts | 205° |
| 2026-04-21 16:48 | 27.27143 | -10.68698 | 34803 ft | 458 kts | 205° |
| 2026-04-21 16:48 | 27.21144 | -10.71265 | 34806 ft | 458 kts | 205° |
| 2026-04-21 16:49 | 27.15230 | -10.73792 | 34809 ft | 457 kts | 205° |
| 2026-04-21 16:49 | 27.09271 | -10.76337 | 34812 ft | 457 kts | 205° |
| 2026-04-21 16:50 | 27.03328 | -10.78872 | 34794 ft | 457 kts | 206° |
| 2026-04-21 16:50 | 26.97399 | -10.81397 | 34805 ft | 457 kts | 206° |
| 2026-04-21 16:51 | 26.91454 | -10.83927 | 34810 ft | 457 kts | 206° |
| 2026-04-21 16:51 | 26.85506 | -10.86455 | 34806 ft | 457 kts | 206° |
| 2026-04-21 16:52 | 26.79596 | -10.88965 | 34812 ft | 457 kts | 206° |
| 2026-04-21 16:52 | 26.73653 | -10.91485 | 34796 ft | 457 kts | 206° |
| 2026-04-21 16:53 | 26.67700 | -10.94006 | 34815 ft | 457 kts | 206° |
| 2026-04-21 16:53 | 26.61740 | -10.96528 | 34811 ft | 458 kts | 206° |
| 2026-04-21 16:54 | 26.55771 | -10.99052 | 34815 ft | 459 kts | 206° |
| 2026-04-21 16:54 | 26.49996 | -11.01490 | 34814 ft | 460 kts | 206° |
| 2026-04-21 16:55 | 26.44036 | -11.04003 | 34795 ft | 461 kts | 206° |
| 2026-04-21 16:55 | 26.38047 | -11.06526 | 34819 ft | 460 kts | 207° |
| 2026-04-21 16:56 | 26.32055 | -11.09047 | 34819 ft | 460 kts | 207° |
| 2026-04-21 16:56 | 26.26062 | -11.11566 | 34820 ft | 459 kts | 207° |
| 2026-04-21 16:57 | 26.20085 | -11.14076 | 34819 ft | 459 kts | 207° |
| 2026-04-21 16:57 | 26.14102 | -11.16585 | 34822 ft | 459 kts | 207° |
| 2026-04-21 16:58 | 26.08132 | -11.19085 | 34821 ft | 458 kts | 207° |
| 2026-04-21 16:58 | 26.02167 | -11.21582 | 34820 ft | 458 kts | 207° |
| 2026-04-21 16:59 | 25.96219 | -11.24069 | 34829 ft | 458 kts | 207° |
| 2026-04-21 16:59 | 25.90287 | -11.26547 | 34820 ft | 458 kts | 207° |
| 2026-04-21 17:00 | 25.84318 | -11.29036 | 34828 ft | 458 kts | 207° |
| 2026-04-21 17:00 | 25.79321 | -11.31119 | 34810 ft | 458 kts | 207° |
| 2026-04-21 17:01 | 25.72380 | -11.34008 | 34820 ft | 458 kts | 208° |
| 2026-04-21 17:01 | 25.66400 | -11.36495 | 34829 ft | 459 kts | 208° |
| 2026-04-21 17:02 | 25.60402 | -11.38987 | 34828 ft | 460 kts | 208° |
| 2026-04-21 17:02 | 25.54455 | -11.41454 | 34829 ft | 460 kts | 208° |
| 2026-04-21 17:03 | 25.48447 | -11.43944 | 34804 ft | 460 kts | 208° |
| 2026-04-21 17:03 | 25.42457 | -11.46424 | 34816 ft | 460 kts | 208° |
| 2026-04-21 17:04 | 25.36456 | -11.48906 | 34835 ft | 460 kts | 208° |
| 2026-04-21 17:04 | 25.30454 | -11.51386 | 34812 ft | 460 kts | 208° |
| 2026-04-21 17:05 | 25.24465 | -11.53859 | 34816 ft | 460 kts | 208° |
| 2026-04-21 17:05 | 25.18447 | -11.56289 | 34768 ft | 461 kts | 207° |
| 2026-04-21 17:06 | 25.12372 | -11.58573 | 34812 ft | 462 kts | 207° |
| 2026-04-21 17:06 | 25.06266 | -11.60845 | 34826 ft | 463 kts | 207° |
| 2026-04-21 17:07 | 25.01194 | -11.62745 | 34824 ft | 464 kts | 207° |
| 2026-04-21 17:07 | 24.94100 | -11.65416 | 34822 ft | 464 kts | 207° |
| 2026-04-21 17:08 | 24.87977 | -11.67722 | 34817 ft | 465 kts | 207° |
| 2026-04-21 17:08 | 24.81859 | -11.70023 | 34815 ft | 465 kts | 207° |
| 2026-04-21 17:09 | 24.72651 | -11.73482 | 34821 ft | 466 kts | 207° |
| 2026-04-21 17:09 | 24.66499 | -11.75790 | 34824 ft | 467 kts | 207° |
| 2026-04-21 17:10 | 24.60345 | -11.78095 | 34827 ft | 468 kts | 207° |
| 2026-04-21 17:10 | 24.54182 | -11.80402 | 34796 ft | 468 kts | 207° |
| 2026-04-21 17:11 | 24.48021 | -11.82705 | 34818 ft | 467 kts | 208° |
| 2026-04-21 17:11 | 24.41858 | -11.85007 | 34826 ft | 467 kts | 208° |
| 2026-04-21 17:12 | 24.35703 | -11.87304 | 34827 ft | 467 kts | 208° |
| 2026-04-21 17:12 | 24.29548 | -11.89599 | 34829 ft | 468 kts | 208° |
| 2026-04-21 17:13 | 24.23385 | -11.91894 | 34832 ft | 468 kts | 207° |
| 2026-04-21 17:13 | 24.17251 | -11.94176 | 34830 ft | 468 kts | 207° |
| 2026-04-21 17:14 | 24.11076 | -11.96470 | 34827 ft | 468 kts | 207° |
| 2026-04-21 17:14 | 24.04900 | -11.98763 | 34826 ft | 468 kts | 207° |
| 2026-04-21 17:15 | 23.98972 | -12.00961 | 34829 ft | 468 kts | 207° |
| 2026-04-21 17:15 | 23.92797 | -12.03249 | 34828 ft | 468 kts | 207° |
| 2026-04-21 17:16 | 23.86636 | -12.05529 | 34835 ft | 467 kts | 208° |
| 2026-04-21 17:16 | 23.80475 | -12.07808 | 34835 ft | 468 kts | 208° |
| 2026-04-21 17:17 | 23.74302 | -12.10090 | 34836 ft | 469 kts | 208° |
| 2026-04-21 17:17 | 23.68152 | -12.12359 | 34836 ft | 469 kts | 208° |
| 2026-04-21 17:18 | 23.61964 | -12.14639 | 34836 ft | 470 kts | 208° |
| 2026-04-21 17:18 | 23.55775 | -12.16918 | 34817 ft | 469 kts | 210° |
| 2026-04-21 17:19 | 23.49594 | -12.19194 | 34828 ft | 468 kts | 210° |
| 2026-04-21 17:19 | 23.43431 | -12.21460 | 34834 ft | 467 kts | 210° |
| 2026-04-21 17:20 | 23.37278 | -12.23722 | 34833 ft | 467 kts | 210° |
| 2026-04-21 17:20 | 23.31126 | -12.25985 | 34832 ft | 466 kts | 210° |
| 2026-04-21 17:21 | 23.24974 | -12.28245 | 34785 ft | 466 kts | 211° |
| 2026-04-21 17:21 | 23.18838 | -12.30496 | 34830 ft | 466 kts | 212° |
| 2026-04-21 17:22 | 23.12700 | -12.32749 | 34825 ft | 466 kts | 211° |
| 2026-04-21 17:22 | 23.06549 | -12.35003 | 34834 ft | 466 kts | 211° |
| 2026-04-21 17:23 | 23.00437 | -12.37240 | 34827 ft | 467 kts | 211° |
| 2026-04-21 17:23 | 22.94287 | -12.39489 | 34827 ft | 467 kts | 211° |
| 2026-04-21 17:24 | 22.88156 | -12.41726 | 34821 ft | 467 kts | 213° |
| 2026-04-21 17:24 | 22.81998 | -12.43976 | 34826 ft | 468 kts | 213° |
| 2026-04-21 17:25 | 22.75799 | -12.46220 | 34827 ft | 472 kts | 211° |
| 2026-04-21 17:25 | 22.69373 | -12.48048 | 34835 ft | 480 kts | 207° |
| 2026-04-21 17:26 | 22.62873 | -12.49777 | 34822 ft | 482 kts | 208° |
| 2026-04-21 17:26 | 22.57457 | -12.51220 | 34813 ft | 480 kts | 208° |
| 2026-04-21 17:27 | 22.49937 | -12.53245 | 34821 ft | 479 kts | 208° |
| 2026-04-21 17:27 | 22.43483 | -12.54995 | 34819 ft | 478 kts | 208° |
| 2026-04-21 17:28 | 22.38076 | -12.56462 | 34819 ft | 477 kts | 208° |
| 2026-04-21 17:28 | 22.31638 | -12.58206 | 34817 ft | 477 kts | 208° |
| 2026-04-21 17:29 | 22.25242 | -12.59935 | 34791 ft | 476 kts | 208° |
| 2026-04-21 17:29 | 22.18813 | -12.61670 | 34811 ft | 476 kts | 208° |
| 2026-04-21 17:30 | 22.12390 | -12.63405 | 34824 ft | 476 kts | 208° |
| 2026-04-21 17:30 | 22.05950 | -12.65143 | 34824 ft | 478 kts | 208° |
| 2026-04-21 17:31 | 21.99509 | -12.66878 | 34824 ft | 479 kts | 208° |
| 2026-04-21 17:31 | 21.93039 | -12.68619 | 34798 ft | 479 kts | 207° |
| 2026-04-21 17:32 | 21.86573 | -12.70355 | 34821 ft | 480 kts | 207° |
| 2026-04-21 17:32 | 21.80088 | -12.72097 | 34824 ft | 480 kts | 207° |
| 2026-04-21 17:33 | 21.73604 | -12.73836 | 34829 ft | 480 kts | 207° |
| 2026-04-21 17:33 | 21.67130 | -12.75571 | 34822 ft | 480 kts | 207° |
| 2026-04-21 17:34 | 21.60649 | -12.77306 | 34800 ft | 479 kts | 206° |
| 2026-04-21 17:34 | 21.54175 | -12.79037 | 34827 ft | 478 kts | 206° |
| 2026-04-21 17:35 | 21.47760 | -12.80753 | 34824 ft | 478 kts | 206° |
| 2026-04-21 17:35 | 21.41303 | -12.82478 | 34817 ft | 478 kts | 206° |
| 2026-04-21 17:36 | 21.34851 | -12.84199 | 34821 ft | 478 kts | 206° |
| 2026-04-21 17:36 | 21.28403 | -12.85919 | 34786 ft | 477 kts | 206° |
| 2026-04-21 17:37 | 21.21953 | -12.87636 | 34822 ft | 477 kts | 206° |
| 2026-04-21 17:37 | 21.15510 | -12.89351 | 34827 ft | 477 kts | 206° |
| 2026-04-21 17:38 | 21.09052 | -12.91069 | 34824 ft | 478 kts | 206° |
| 2026-04-21 17:38 | 21.02632 | -12.92774 | 34826 ft | 478 kts | 206° |
| 2026-04-21 17:39 | 20.96192 | -12.94483 | 34826 ft | 478 kts | 206° |
| 2026-04-21 17:39 | 20.89728 | -12.96197 | 34825 ft | 478 kts | 206° |
| 2026-04-21 17:40 | 20.83261 | -12.97911 | 34822 ft | 479 kts | 206° |
| 2026-04-21 17:40 | 20.76800 | -12.99621 | 34833 ft | 479 kts | 206° |
| 2026-04-21 17:41 | 20.70552 | -13.01273 | 34826 ft | 479 kts | 206° |
| 2026-04-21 17:41 | 20.64089 | -13.02981 | 34789 ft | 479 kts | 206° |
| 2026-04-21 17:42 | 20.57625 | -13.04687 | 34822 ft | 478 kts | 205° |
| 2026-04-21 17:42 | 20.51386 | -13.06714 | 34821 ft | 462 kts | 215° |
| 2026-04-21 17:43 | 20.45826 | -13.09901 | 34825 ft | 445 kts | 225° |
| 2026-04-21 17:43 | 20.40867 | -13.13788 | 34820 ft | 442 kts | 227° |
| 2026-04-21 17:44 | 20.35936 | -13.17715 | 34824 ft | 444 kts | 227° |
| 2026-04-21 17:44 | 20.30970 | -13.21643 | 34816 ft | 445 kts | 227° |
| 2026-04-21 17:45 | 20.25970 | -13.25572 | 34827 ft | 446 kts | 226° |
| 2026-04-21 17:45 | 20.20962 | -13.29497 | 34822 ft | 448 kts | 226° |
| 2026-04-21 17:46 | 20.15939 | -13.33429 | 34818 ft | 449 kts | 226° |
| 2026-04-21 17:46 | 20.10905 | -13.37367 | 34820 ft | 449 kts | 226° |
| 2026-04-21 17:47 | 20.05861 | -13.41309 | 34831 ft | 450 kts | 226° |
| 2026-04-21 17:47 | 20.00852 | -13.45221 | 34823 ft | 449 kts | 226° |
| 2026-04-21 17:48 | 19.95826 | -13.49142 | 34819 ft | 448 kts | 226° |
| 2026-04-21 17:48 | 19.90802 | -13.53061 | 34809 ft | 448 kts | 225° |
| 2026-04-21 17:49 | 19.85777 | -13.56977 | 34822 ft | 448 kts | 225° |
| 2026-04-21 17:49 | 19.80742 | -13.60899 | 34818 ft | 449 kts | 225° |
| 2026-04-21 17:50 | 19.75700 | -13.64822 | 34817 ft | 450 kts | 225° |
| 2026-04-21 17:50 | 19.70640 | -13.68756 | 34814 ft | 450 kts | 225° |
| 2026-04-21 17:51 | 19.65586 | -13.72681 | 34810 ft | 451 kts | 225° |
| 2026-04-21 17:51 | 19.60522 | -13.76611 | 34809 ft | 451 kts | 225° |
| 2026-04-21 17:52 | 19.55505 | -13.80501 | 34803 ft | 450 kts | 225° |
| 2026-04-21 17:52 | 19.50451 | -13.84417 | 34804 ft | 449 kts | 225° |
| 2026-04-21 17:53 | 19.45407 | -13.88322 | 34801 ft | 449 kts | 225° |
| 2026-04-21 17:53 | 19.40361 | -13.92226 | 34812 ft | 449 kts | 225° |
| 2026-04-21 17:54 | 19.35324 | -13.96121 | 34805 ft | 449 kts | 225° |
| 2026-04-21 17:54 | 19.30281 | -14.00017 | 34807 ft | 449 kts | 225° |
| 2026-04-21 17:55 | 19.25424 | -14.03766 | 34811 ft | 449 kts | 225° |
| 2026-04-21 17:55 | 19.20378 | -14.07657 | 34812 ft | 448 kts | 225° |
| 2026-04-21 17:56 | 19.15371 | -14.11516 | 34813 ft | 448 kts | 225° |
| 2026-04-21 17:56 | 19.10338 | -14.15392 | 34809 ft | 448 kts | 225° |
| 2026-04-21 17:57 | 19.05299 | -14.19270 | 34805 ft | 448 kts | 225° |
| 2026-04-21 17:57 | 19.00262 | -14.23143 | 34804 ft | 447 kts | 225° |
| 2026-04-21 17:58 | 18.95250 | -14.26994 | 34805 ft | 447 kts | 225° |
| 2026-04-21 17:58 | 18.90211 | -14.30862 | 34805 ft | 447 kts | 225° |
| 2026-04-21 17:59 | 18.85173 | -14.34728 | 34795 ft | 447 kts | 224° |
| 2026-04-21 17:59 | 18.80135 | -14.38591 | 34815 ft | 448 kts | 224° |
| 2026-04-21 18:00 | 18.75080 | -14.42463 | 34814 ft | 449 kts | 224° |
| 2026-04-21 18:00 | 18.70053 | -14.46311 | 34813 ft | 450 kts | 224° |
| 2026-04-21 18:01 | 18.64984 | -14.50188 | 34806 ft | 450 kts | 224° |
| 2026-04-21 18:01 | 18.59912 | -14.54064 | 34809 ft | 450 kts | 224° |
| 2026-04-21 18:02 | 18.54837 | -14.57939 | 34811 ft | 450 kts | 224° |
| 2026-04-21 18:02 | 18.49761 | -14.61813 | 34805 ft | 450 kts | 224° |
| 2026-04-21 18:03 | 18.44689 | -14.65681 | 34815 ft | 451 kts | 224° |
| 2026-04-21 18:03 | 18.39602 | -14.69557 | 34812 ft | 451 kts | 224° |
| 2026-04-21 18:04 | 18.34513 | -14.73432 | 34813 ft | 452 kts | 224° |
| 2026-04-21 18:04 | 18.29422 | -14.77306 | 34812 ft | 452 kts | 224° |
| 2026-04-21 18:05 | 18.24318 | -14.81187 | 34814 ft | 452 kts | 224° |
| 2026-04-21 18:05 | 18.19221 | -14.85059 | 34786 ft | 452 kts | 224° |
| 2026-04-21 18:06 | 18.14120 | -14.88932 | 34808 ft | 452 kts | 224° |
| 2026-04-21 18:06 | 18.09050 | -14.92778 | 34814 ft | 452 kts | 224° |
| 2026-04-21 18:07 | 18.03943 | -14.96650 | 34817 ft | 452 kts | 224° |
| 2026-04-21 18:07 | 17.99032 | -15.00371 | 34820 ft | 452 kts | 224° |
| 2026-04-21 18:08 | 17.93922 | -15.04240 | 34811 ft | 453 kts | 224° |
| 2026-04-21 18:08 | 17.88811 | -15.08107 | 34812 ft | 453 kts | 224° |
| 2026-04-21 18:09 | 17.83694 | -15.11976 | 34821 ft | 452 kts | 224° |
| 2026-04-21 18:09 | 17.78585 | -15.15831 | 34806 ft | 452 kts | 223° |
| 2026-04-21 18:10 | 17.73509 | -15.19658 | 34816 ft | 452 kts | 223° |
| 2026-04-21 18:10 | 17.68402 | -15.23508 | 34816 ft | 452 kts | 223° |
| 2026-04-21 18:11 | 17.63288 | -15.27360 | 34818 ft | 452 kts | 223° |
| 2026-04-21 18:11 | 17.58178 | -15.31211 | 34819 ft | 452 kts | 223° |
| 2026-04-21 18:12 | 17.53071 | -15.35060 | 34820 ft | 452 kts | 223° |
| 2026-04-21 18:12 | 17.47959 | -15.38911 | 34828 ft | 452 kts | 223° |
| 2026-04-21 18:13 | 17.42850 | -15.42757 | 34826 ft | 452 kts | 223° |
| 2026-04-21 18:13 | 17.37737 | -15.46603 | 34828 ft | 452 kts | 223° |
| 2026-04-21 18:14 | 17.30933 | -15.51717 | 34835 ft | 452 kts | 223° |
| 2026-04-21 18:15 | 17.25812 | -15.55563 | 34831 ft | 452 kts | 223° |
| 2026-04-21 18:15 | 17.20700 | -15.59399 | 34833 ft | 452 kts | 223° |
| 2026-04-21 18:16 | 17.15585 | -15.63237 | 34832 ft | 452 kts | 223° |
| 2026-04-21 18:16 | 17.10470 | -15.67071 | 34829 ft | 452 kts | 223° |
| 2026-04-21 18:17 | 17.05353 | -15.70905 | 34842 ft | 452 kts | 223° |
| 2026-04-21 18:17 | 17.00250 | -15.74730 | 34839 ft | 452 kts | 223° |
| 2026-04-21 18:18 | 16.95197 | -15.78515 | 34849 ft | 452 kts | 223° |
| 2026-04-21 18:18 | 16.90079 | -15.82346 | 34850 ft | 452 kts | 223° |
| 2026-04-21 18:19 | 16.84967 | -15.86171 | 34848 ft | 452 kts | 223° |
| 2026-04-21 18:19 | 16.79847 | -15.89998 | 34845 ft | 452 kts | 223° |
| 2026-04-21 18:20 | 16.74729 | -15.93822 | 34861 ft | 452 kts | 222° |
| 2026-04-21 18:20 | 16.69607 | -15.97647 | 34846 ft | 452 kts | 222° |
| 2026-04-21 18:21 | 16.64694 | -16.01312 | 34863 ft | 452 kts | 222° |
| 2026-04-21 18:21 | 16.59576 | -16.05129 | 34853 ft | 452 kts | 222° |
| 2026-04-21 18:22 | 16.54457 | -16.08945 | 34858 ft | 452 kts | 222° |
| 2026-04-21 18:22 | 16.49345 | -16.12750 | 34866 ft | 452 kts | 222° |
| 2026-04-21 18:23 | 16.44218 | -16.16557 | 34854 ft | 452 kts | 222° |
| 2026-04-21 18:23 | 16.39099 | -16.20358 | 34848 ft | 452 kts | 221° |
| 2026-04-21 18:24 | 16.33982 | -16.24156 | 34870 ft | 452 kts | 221° |
| 2026-04-21 18:24 | 16.28872 | -16.27946 | 34871 ft | 452 kts | 221° |
| 2026-04-21 18:25 | 16.23747 | -16.31746 | 34866 ft | 452 kts | 221° |
| 2026-04-21 18:25 | 16.18623 | -16.35543 | 34869 ft | 452 kts | 221° |
| 2026-04-21 18:26 | 16.13499 | -16.39337 | 34887 ft | 452 kts | 221° |
| 2026-04-21 18:26 | 16.08367 | -16.43111 | 34882 ft | 454 kts | 219° |
| 2026-04-21 18:27 | 16.02721 | -16.46212 | 34876 ft | 462 kts | 210° |
| 2026-04-21 18:27 | 15.96645 | -16.48416 | 34883 ft | 467 kts | 204° |
| 2026-04-21 18:28 | 15.90526 | -16.50299 | 34621 ft | 450 kts | 204° |
| 2026-04-21 18:28 | 15.87582 | -16.51204 | 34242 ft | 445 kts | 204° |
| 2026-04-21 18:28 | 15.84585 | -16.52135 | 33789 ft | 442 kts | 204° |
| 2026-04-21 18:28 | 15.81692 | -16.53042 | 33293 ft | 439 kts | 204° |
| 2026-04-21 18:29 | 15.78744 | -16.53972 | 32802 ft | 436 kts | 204° |
| 2026-04-21 18:29 | 15.75897 | -16.54873 | 32333 ft | 433 kts | 204° |
| 2026-04-21 18:29 | 15.73024 | -16.55782 | 31868 ft | 430 kts | 204° |
| 2026-04-21 18:29 | 15.70163 | -16.56688 | 31396 ft | 428 kts | 204° |
| 2026-04-21 18:30 | 15.67326 | -16.57587 | 30941 ft | 426 kts | 204° |
| 2026-04-21 18:30 | 15.64490 | -16.58484 | 30495 ft | 425 kts | 204° |
| 2026-04-21 18:30 | 15.61663 | -16.59378 | 30031 ft | 424 kts | 204° |
| 2026-04-21 18:30 | 15.58837 | -16.60272 | 29508 ft | 423 kts | 204° |
| 2026-04-21 18:31 | 15.56023 | -16.61161 | 29002 ft | 421 kts | 204° |
| 2026-04-21 18:31 | 15.53232 | -16.62042 | 28514 ft | 419 kts | 204° |
| 2026-04-21 18:31 | 15.50457 | -16.62917 | 28062 ft | 417 kts | 204° |
| 2026-04-21 18:31 | 15.47686 | -16.63791 | 27585 ft | 414 kts | 204° |
| 2026-04-21 18:32 | 15.44930 | -16.64660 | 27127 ft | 412 kts | 204° |
| 2026-04-21 18:32 | 15.42185 | -16.65526 | 26679 ft | 411 kts | 204° |
| 2026-04-21 18:32 | 15.39489 | -16.66376 | 26214 ft | 409 kts | 203° |
| 2026-04-21 18:32 | 15.36768 | -16.67234 | 25758 ft | 408 kts | 203° |
| 2026-04-21 18:33 | 15.34047 | -16.68092 | 25290 ft | 408 kts | 203° |
| 2026-04-21 18:33 | 15.31338 | -16.68946 | 24841 ft | 407 kts | 202° |
| 2026-04-21 18:33 | 15.28632 | -16.69798 | 24388 ft | 407 kts | 202° |
| 2026-04-21 18:33 | 15.25925 | -16.70651 | 23925 ft | 407 kts | 202° |
| 2026-04-21 18:34 | 15.23214 | -16.71504 | 23469 ft | 407 kts | 202° |
| 2026-04-21 18:34 | 15.20499 | -16.72359 | 22926 ft | 407 kts | 202° |
| 2026-04-21 18:34 | 15.17794 | -16.73210 | 22447 ft | 405 kts | 202° |
| 2026-04-21 18:34 | 15.15101 | -16.74056 | 21968 ft | 403 kts | 202° |
| 2026-04-21 18:35 | 15.13325 | -16.74614 | 21673 ft | 402 kts | 201° |
| 2026-04-21 18:35 | 15.09751 | -16.75736 | 21069 ft | 399 kts | 201° |
| 2026-04-21 18:35 | 15.07099 | -16.76569 | 20616 ft | 397 kts | 201° |
| 2026-04-21 18:35 | 15.04465 | -16.77397 | 20170 ft | 395 kts | 201° |
| 2026-04-21 18:36 | 15.01841 | -16.78221 | 19734 ft | 392 kts | 201° |
| 2026-04-21 18:36 | 14.99266 | -16.79029 | 19257 ft | 390 kts | 200° |
| 2026-04-21 18:36 | 14.96931 | -16.79763 | 18858 ft | 389 kts | 200° |
| 2026-04-21 18:36 | 14.94348 | -16.80573 | 18411 ft | 387 kts | 200° |
| 2026-04-21 18:37 | 14.91814 | -16.81368 | 17938 ft | 385 kts | 200° |
| 2026-04-21 18:37 | 14.89257 | -16.82170 | 17450 ft | 382 kts | 200° |
| 2026-04-21 18:37 | 14.86722 | -16.82965 | 16988 ft | 379 kts | 200° |
| 2026-04-21 18:37 | 14.84206 | -16.83753 | 16534 ft | 376 kts | 199° |
| 2026-04-21 18:38 | 14.81718 | -16.84533 | 16097 ft | 373 kts | 200° |
| 2026-04-21 18:38 | 14.79248 | -16.85307 | 15674 ft | 370 kts | 199° |
| 2026-04-21 18:38 | 14.76798 | -16.86075 | 15225 ft | 367 kts | 200° |
| 2026-04-21 18:38 | 14.74362 | -16.86838 | 14810 ft | 364 kts | 200° |
| 2026-04-21 18:39 | 14.71941 | -16.87596 | 14388 ft | 362 kts | 199° |
| 2026-04-21 18:39 | 14.69547 | -16.88346 | 13960 ft | 360 kts | 199° |
| 2026-04-21 18:39 | 14.67155 | -16.89094 | 13511 ft | 358 kts | 199° |
| 2026-04-21 18:39 | 14.64775 | -16.89840 | 13069 ft | 355 kts | 199° |
| 2026-04-21 18:40 | 14.62426 | -16.90575 | 12638 ft | 352 kts | 198° |
| 2026-04-21 18:40 | 14.60090 | -16.91306 | 12205 ft | 350 kts | 198° |
| 2026-04-21 18:40 | 14.58554 | -16.91787 | 11947 ft | 348 kts | 197° |
| 2026-04-21 18:40 | 14.55468 | -16.92751 | 11405 ft | 344 kts | 197° |
| 2026-04-21 18:41 | 14.53191 | -16.93463 | 11004 ft | 341 kts | 197° |
| 2026-04-21 18:41 | 14.50925 | -16.94172 | 10607 ft | 338 kts | 197° |
| 2026-04-21 18:41 | 14.48683 | -16.94872 | 10342 ft | 332 kts | 197° |
| 2026-04-21 18:41 | 14.46501 | -16.95554 | 10166 ft | 323 kts | 197° |
| 2026-04-21 18:42 | 14.44382 | -16.96216 | 10025 ft | 313 kts | 196° |
| 2026-04-21 18:42 | 14.42329 | -16.96858 | 9875 ft | 304 kts | 196° |
| 2026-04-21 18:42 | 14.40324 | -16.97483 | 9675 ft | 297 kts | 196° |
| 2026-04-21 18:42 | 14.38415 | -16.98079 | 9284 ft | 283 kts | 196° |
| 2026-04-21 18:43 | 14.36591 | -16.98649 | 8898 ft | 267 kts | 196° |
| 2026-04-21 18:43 | 14.34866 | -16.99187 | 8573 ft | 250 kts | 196° |
| 2026-04-21 18:43 | 14.33199 | -16.99707 | 8266 ft | 256 kts | 196° |
| 2026-04-21 18:43 | 14.31562 | -17.00217 | 7991 ft | 271 kts | 196° |
| 2026-04-21 18:44 | 14.29738 | -17.00794 | 7647 ft | 275 kts | 200° |
| 2026-04-21 18:44 | 14.28201 | -17.01889 | 7295 ft | 271 kts | 235° |
| 2026-04-21 18:44 | 14.27530 | -17.03667 | 6998 ft | 268 kts | 265° |
| 2026-04-21 18:44 | 14.27796 | -17.05544 | 6700 ft | 266 kts | 294° |
| 2026-04-21 18:45 | 14.28913 | -17.07023 | 6418 ft | 263 kts | 324° |
| 2026-04-21 18:45 | 14.30583 | -17.07727 | 6135 ft | 261 kts | 355° |
| 2026-04-21 18:45 | 14.32405 | -17.07558 | 5894 ft | 267 kts | 11° |
| 2026-04-21 18:45 | 14.34264 | -17.07220 | 5545 ft | 273 kts | 7° |
| 2026-04-21 18:46 | 14.36152 | -17.06968 | 5199 ft | 273 kts | 5° |
| 2026-04-21 18:46 | 14.38011 | -17.06833 | 5079 ft | 264 kts | 1° |
| 2026-04-21 18:46 | 14.39853 | -17.06821 | 4789 ft | 262 kts | 358° |
| 2026-04-21 18:46 | 14.41626 | -17.06851 | 4668 ft | 254 kts | 358° |
| 2026-04-21 18:47 | 14.43379 | -17.06884 | 4373 ft | 251 kts | 359° |
| 2026-04-21 18:47 | 14.45115 | -17.06914 | 4129 ft | 245 kts | 359° |
| 2026-04-21 18:47 | 14.46772 | -17.06941 | 3782 ft | 231 kts | 359° |
| 2026-04-21 18:47 | 14.48357 | -17.06966 | 3500 ft | 224 kts | 359° |
| 2026-04-21 18:48 | 14.49855 | -17.06991 | 3245 ft | 209 kts | 359° |
| 2026-04-21 18:48 | 14.51262 | -17.07013 | 2952 ft | 194 kts | 359° |
| 2026-04-21 18:48 | 14.52552 | -17.07035 | 2715 ft | 177 kts | 0° |
| 2026-04-21 18:48 | 14.53750 | -17.07054 | 2520 ft | 170 kts | 360° |
| 2026-04-21 18:49 | 14.54949 | -17.07074 | 2339 ft | 172 kts | 360° |
| 2026-04-21 18:49 | 14.56130 | -17.07091 | 2063 ft | 163 kts | 359° |
| 2026-04-21 18:49 | 14.56851 | -17.07104 | 1946 ft | 149 kts | 0° |
| 2026-04-21 18:49 | 14.58185 | -17.07126 | 1702 ft | 141 kts | 0° |
| 2026-04-21 18:50 | 14.59192 | -17.07142 | 1542 ft | 147 kts | 359° |
| 2026-04-21 18:50 | 14.60222 | -17.07158 | 1331 ft | 146 kts | 360° |
| 2026-04-21 18:50 | 14.61213 | -17.07175 | 1143 ft | 140 kts | 0° |
| 2026-04-21 18:50 | 14.62188 | -17.07190 | 967 ft | 139 kts | 359° |
| 2026-04-21 18:51 | 14.63140 | -17.07208 | 825 ft | 136 kts | 358° |
| 2026-04-21 18:51 | 14.64095 | -17.07244 | 636 ft | 140 kts | 357° |
| 2026-04-21 18:51 | 14.65067 | -17.07271 | 414 ft | 138 kts | 359° |
| 2026-04-21 18:51 | 14.66008 | -17.07273 | 302 ft | 132 kts | 359° |
| 2026-04-21 18:52 | 14.66819 | -17.07278 | 305 ft | 93 kts | 360° |
| 2026-04-21 18:52 | 14.67282 | -17.07283 | 300 ft | 40 kts | 360° |
| 2026-04-21 18:52 | 14.67546 | -17.07279 | 297 ft | 38 kts | 5° |
| 2026-04-21 18:52 | 14.67739 | -17.07227 | 296 ft | 21 kts | 26° |
| 2026-04-21 18:53 | 14.67774 | -17.07207 | 295 ft | 1 kts | 29° |
| 2026-04-21 18:53 | 14.67777 | -17.07205 | 295 ft | 0 kts | 29° |
| 2026-04-21 18:53 | 14.67784 | -17.07201 | 294 ft | 0 kts | 29° |
| 2026-04-21 18:54 | 14.67787 | -17.07200 | 294 ft | 0 kts | 29° |
| 2026-04-21 18:55 | 14.67789 | -17.07198 | 295 ft | 1 kts | 29° |
| 2026-04-21 18:55 | 14.67798 | -17.07193 | 291 ft | 0 kts | 29° |
| 2026-04-21 18:56 | 14.67803 | -17.07190 | 294 ft | 2 kts | 29° |
| 2026-04-21 18:56 | 14.67822 | -17.07179 | 291 ft | 4 kts | 29° |
| 2026-04-21 18:56 | 14.67850 | -17.07163 | 288 ft | 5 kts | 29° |
| 2026-04-21 18:56 | 14.67884 | -17.07143 | 288 ft | 6 kts | 28° |
| 2026-04-21 18:57 | 14.67887 | -17.07141 | 288 ft | 0 kts | 28° |
| 2026-04-21 18:57 | 14.67891 | -17.07139 | 288 ft | 0 kts | 32° |
| 2026-04-21 18:57 | 14.67892 | -17.07138 | 288 ft | 0 kts | 34° |
| 2026-04-21 18:57 | 14.67897 | -17.07117 | 288 ft | 5 kts | 94° |
| 2026-04-21 18:58 | 14.67870 | -17.07100 | 295 ft | 5 kts | 178° |
| 2026-04-21 18:58 | 14.67834 | -17.07099 | 295 ft | 5 kts | 179° |
| 2026-04-21 18:58 | 14.67799 | -17.07098 | 293 ft | 5 kts | 179° |
| 2026-04-21 18:58 | 14.67763 | -17.07098 | 292 ft | 5 kts | 179° |
| 2026-04-21 18:59 | 14.67720 | -17.07097 | 294 ft | 11 kts | 179° |
| 2026-04-21 18:59 | 14.67687 | -17.07096 | 294 ft | 4 kts | 179° |
| 2026-04-21 18:59 | 14.67659 | -17.07096 | 295 ft | 4 kts | 179° |
| 2026-04-21 18:59 | 14.67631 | -17.07096 | 295 ft | 4 kts | 180° |
| 2026-04-21 19:00 | 14.67568 | -17.07096 | 296 ft | 12 kts | 180° |
| 2026-04-21 19:00 | 14.67483 | -17.07096 | 296 ft | 12 kts | 179° |
| 2026-04-21 19:00 | 14.67399 | -17.07094 | 301 ft | 12 kts | 179° |
| 2026-04-21 19:00 | 14.67314 | -17.07093 | 301 ft | 12 kts | 179° |
| 2026-04-21 19:01 | 14.67258 | -17.07092 | 302 ft | 12 kts | 180° |
| 2026-04-21 19:01 | 14.67146 | -17.07092 | 304 ft | 12 kts | 180° |
| 2026-04-21 19:01 | 14.67083 | -17.07057 | 303 ft | 10 kts | 108° |
| 2026-04-21 19:01 | 14.67078 | -17.07006 | 300 ft | 9 kts | 92° |
| 2026-04-21 19:02 | 14.67078 | -17.06954 | 300 ft | 7 kts | 90° |
| 2026-04-21 19:02 | 14.67078 | -17.06903 | 300 ft | 7 kts | 89° |
| 2026-04-21 19:02 | 14.67078 | -17.06870 | 300 ft | 2 kts | 89° |
| 2026-04-21 19:02 | 14.67078 | -17.06860 | 300 ft | 1 kts | 88° |
| 2026-04-21 19:03 | 14.67078 | -17.06859 | 300 ft | 0 kts | 88° |